createdAt,value
2019-02-26T00:01:50.479Z,16.60
2019-02-26T00:11:53.423Z,15.50
2019-02-26T00:21:58.520Z,15.23
2019-02-26T00:32:03.734Z,17.03
2019-02-26T00:42:08.971Z,17.20
2019-02-26T00:52:15.607Z,14.40
2019-02-26T01:02:20.663Z,15.73
2019-02-26T01:12:25.689Z,14.30
2019-02-26T01:22:31.104Z,14.10
2019-02-26T01:32:37.489Z,16.63
2019-02-26T01:42:47.206Z,14.40
2019-02-26T01:52:50.040Z,13.40
2019-02-26T02:02:56.147Z,15.23
2019-02-26T02:13:02.837Z,15.93
2019-02-26T02:23:07.705Z,16.43
2019-02-26T02:33:17.200Z,16.10
2019-02-26T02:43:21.372Z,15.43
2019-02-26T02:53:27.424Z,15.50
2019-02-26T03:03:32.473Z,16.67
2019-02-26T03:13:40.342Z,15.63
2019-02-26T03:23:45.675Z,15.97
2019-02-26T03:33:50.914Z,16.93
2019-02-26T03:43:58.267Z,17.00
2019-02-26T03:54:02.745Z,18.53
2019-02-26T04:04:07.796Z,17.23
2019-02-26T04:14:17.376Z,18.07
2019-02-26T04:24:19.550Z,16.37
2019-02-26T04:34:27.647Z,17.00
2019-02-26T04:44:47.706Z,17.33
2019-02-26T04:54:51.577Z,17.33
2019-02-26T05:04:56.641Z,18.13
2019-02-26T05:15:01.771Z,18.33
2019-02-26T05:25:13.767Z,19.53
2019-02-26T05:35:18.071Z,19.17
2019-02-26T05:45:23.836Z,21.30
2019-02-26T05:55:29.598Z,20.80
2019-02-26T06:05:34.634Z,21.63
2019-02-26T06:15:39.800Z,22.70
2019-02-26T06:25:44.972Z,20.30
2019-02-26T06:35:50.433Z,32.07
2019-02-26T06:45:55.595Z,19.03
2019-02-26T06:56:01.264Z,16.80
2019-02-26T07:06:06.150Z,16.53
2019-02-26T07:16:11.212Z,19.20
2019-02-26T07:26:18.313Z,19.23
2019-02-26T07:36:25.798Z,18.95
2019-02-26T07:46:30.855Z,18.90
2019-02-26T07:56:36.213Z,18.60
2019-02-26T08:06:41.651Z,19.00
2019-02-26T08:16:49.240Z,20.87
2019-02-26T08:26:53.973Z,20.90
2019-02-26T08:36:59.424Z,20.67
2019-02-26T08:47:08.801Z,18.32
2019-02-26T08:57:12.606Z,20.88
2019-02-26T09:07:19.531Z,20.23
2019-02-26T09:17:26.728Z,18.90
2019-02-26T09:27:32.111Z,18.25
2019-02-26T09:37:38.480Z,21.23
2019-02-26T09:47:44.919Z,19.80
2019-02-26T09:57:50.674Z,17.30
2019-02-26T10:07:57.989Z,16.43
2019-02-26T10:18:04.886Z,23.90
2019-02-26T10:28:11.583Z,18.48
2019-02-26T10:38:16.954Z,18.40
2019-02-26T10:48:25.105Z,16.23
2019-02-26T10:58:29.032Z,14.73
2019-02-26T11:08:35.067Z,14.27
2019-02-26T11:18:42.529Z,16.70
2019-02-26T11:28:47.915Z,17.37
2019-02-26T11:38:53.439Z,15.18
2019-02-26T11:48:58.637Z,12.45
2019-02-26T11:59:06.610Z,12.78
2019-02-26T12:09:13.692Z,14.43
2019-02-26T12:19:18.104Z,13.83
2019-02-26T12:29:24.046Z,9.33
2019-02-26T12:39:31.378Z,9.18
2019-02-26T12:49:39.149Z,11.00
2019-02-26T12:59:43.621Z,8.38
2019-02-26T13:09:51.961Z,10.73
2019-02-26T13:19:58.867Z,10.73
2019-02-26T13:30:03.268Z,8.63
2019-02-26T13:40:18.399Z,7.76
2019-02-26T13:50:34.724Z,9.60
2019-02-26T14:00:39.767Z,11.73
2019-02-26T14:10:44.853Z,7.87
2019-02-26T14:20:50.050Z,8.90
2019-02-26T14:30:55.157Z,20.80
2019-02-26T14:41:02.440Z,9.57
2019-02-26T14:51:07.444Z,13.97
2019-02-26T15:01:12.834Z,11.25
2019-02-26T15:11:17.999Z,9.93
2019-02-26T15:21:23.699Z,6.67
2019-02-26T15:31:29.230Z,7.03
2019-02-26T15:41:34.615Z,14.07
2019-02-26T15:51:39.819Z,16.00
2019-02-26T16:01:45.006Z,11.53
2019-02-26T16:11:50.392Z,10.00
2019-02-26T16:21:55.920Z,10.00
2019-02-26T16:32:02.654Z,19.23
2019-02-26T16:42:11.367Z,14.47
2019-02-26T16:52:15.632Z,18.20
2019-02-26T17:02:21.106Z,21.68
2019-02-26T17:12:26.965Z,40.90
2019-02-26T17:22:33.864Z,16.87
2019-02-26T17:32:39.545Z,16.80
2019-02-26T17:42:45.219Z,12.70
2019-02-26T17:52:50.867Z,19.63
2019-02-26T18:02:56.286Z,22.20
2019-02-26T18:13:01.511Z,13.27
2019-02-26T18:23:07.159Z,15.93
2019-02-26T18:33:12.914Z,18.33
2019-02-26T18:43:18.408Z,35.65
2019-02-26T18:53:24.150Z,27.13
2019-02-26T19:03:29.883Z,39.60
2019-02-26T19:13:36.256Z,36.90
2019-02-26T19:23:41.923Z,26.77
2019-02-26T19:33:47.632Z,33.03
2019-02-26T19:43:53.313Z,23.03
2019-02-26T19:53:58.963Z,27.27
2019-02-26T20:04:05.474Z,22.60
2019-02-26T20:14:12.304Z,21.52
2019-02-26T20:24:18.439Z,25.02
2019-02-26T20:34:24.033Z,31.30
2019-02-26T20:44:29.540Z,25.57
2019-02-26T20:54:35.218Z,19.70
2019-02-26T21:04:40.709Z,28.90
2019-02-26T21:14:46.099Z,29.03
2019-02-26T21:24:52.723Z,23.80
2019-02-26T21:34:58.238Z,14.70
2019-02-26T21:45:03.729Z,14.97
2019-02-26T21:55:10.669Z,15.40
2019-02-26T22:05:16.916Z,17.15
2019-02-26T22:15:22.217Z,18.62
2019-02-26T22:25:29.250Z,27.90
2019-02-26T22:35:35.051Z,21.13
2019-02-26T22:45:40.359Z,20.63
2019-02-26T22:55:49.586Z,15.30
2019-02-26T23:05:52.514Z,15.27
2019-02-26T23:15:57.616Z,14.23
2019-02-26T23:26:03.102Z,17.27
2019-02-26T23:36:09.411Z,14.83
2019-02-26T23:46:14.319Z,17.87
2019-02-26T23:56:19.890Z,19.33
